Egilsstadir, Iceland
Current Conditions -  °F | °C
As of 6:00 AM on Thursday 27 Nov 2014 (Local Time) from BIEG Reporting Station
Clear Clear  
Wind Chill: 17°   Ceiling: Unl
Heat Index: 23°   Visibility: 6mi
Dew Point: 19°   Wind: 5mph
Humidity: 86%   Direction: 230°SW
Pressure: 29.65"   Gusts: NA
Location:  65.27°N, 14.39°W
Report Text: BIEG 270600Z 23004KT CAVOK M05/M07 Q1004 R04/790095 RMKRWY SANDED
Loading
Personal Weather Stations






























Interactive Weather Map New forecast layout! Learn more

10-Day Weather Forecast

Advertisements
Track Severe Weather on mobile